Time;durP1;ratioP1;P1;durP2;ratioP2;P2;SDS_P1;SDS_P2;PMS_P1;PMS_P2;Temp;Humidity;BMP_temperature;BMP_pressure;BME280_temperature;BME280_humidity;BME280_pressure;Samples;Min_cycle;Max_cycle;Signal;HPM_P1;HPM_P2
2021/10/13 00:00:05;;;;;;;6.00;2.87;;;;;;;4.72;100.00;102160.28;2107321;28;20031;-69
2021/10/13 00:01:05;;;;;;;6.78;2.70;;;;;;;4.71;100.00;102163.69;2107996;28;20504;-68
2021/10/13 00:02:06;;;;;;;10.10;3.10;;;;;;;4.70;100.00;102159.41;2108034;28;20043;-68
2021/10/13 00:03:06;;;;;;;11.13;3.60;;;;;;;4.72;100.00;102158.53;2107980;28;20028;-68
2021/10/13 00:04:06;;;;;;;8.30;2.80;;;;;;;4.71;100.00;102161.09;2107941;28;20465;-68
2021/10/13 00:05:08;;;;;;;8.27;3.63;;;;;;;4.72;100.00;102168.03;2107902;28;20050;-67
2021/10/13 00:06:08;;;;;;;7.93;3.08;;;;;;;4.71;100.00;102154.22;2106874;28;20464;-68
2021/10/13 00:07:08;;;;;;;7.70;3.23;;;;;;;4.72;100.00;102161.13;2107355;28;20047;-69
2021/10/13 00:08:09;;;;;;;9.63;3.23;;;;;;;4.69;100.00;102155.94;2107907;28;20028;-69
2021/10/13 00:09:10;;;;;;;14.13;3.53;;;;;;;4.64;100.00;102158.53;2107804;28;20047;-67
2021/10/13 00:10:10;;;;;;;6.95;3.00;;;;;;;4.68;100.00;102153.38;2107181;28;20564;-68
2021/10/13 00:11:11;;;;;;;9.90;3.70;;;;;;;4.70;100.00;102155.09;2107368;28;20032;-69
2021/10/13 00:12:11;;;;;;;8.53;3.10;;;;;;;4.68;100.00;102148.19;2107242;28;20043;-69
2021/10/13 00:13:15;;;;;;;9.00;2.73;;;;;;;4.68;100.00;102150.78;2107279;28;20446;-68
2021/10/13 00:14:15;;;;;;;6.82;3.17;;;;;;;4.63;100.00;102146.44;2099236;28;20058;-68
2021/10/13 00:15:16;;;;;;;7.20;3.00;;;;;;;4.60;100.00;102148.16;2098783;28;20421;-68
2021/10/13 00:16:16;;;;;;;6.47;2.77;;;;;;;4.57;100.00;102146.44;2107233;28;20031;-68
2021/10/13 00:17:16;;;;;;;7.83;2.87;;;;;;;4.60;100.00;102151.63;2107745;28;20366;-70
2021/10/13 00:18:17;;;;;;;5.40;2.53;;;;;;;4.57;100.00;102146.44;2107223;28;20142;-69
2021/10/13 00:19:17;;;;;;;7.63;2.80;;;;;;;4.54;100.00;102143.81;2107280;28;20484;-69
2021/10/13 00:20:18;;;;;;;8.38;3.38;;;;;;;4.60;100.00;102141.28;2107562;28;20032;-68
2021/10/13 00:21:18;;;;;;;7.33;2.60;;;;;;;4.65;100.00;102143.84;2107633;28;20020;-68
2021/10/13 00:22:18;;;;;;;8.33;3.57;;;;;;;4.69;100.00;102143.00;2107152;28;20087;-68
2021/10/13 00:23:19;;;;;;;6.37;2.50;;;;;;;4.69;100.00;102144.75;2107758;28;20050;-68
2021/10/13 00:24:19;;;;;;;10.30;2.83;;;;;;;4.71;100.00;102149.06;2107735;28;20028;-69
2021/10/13 00:25:20;;;;;;;9.20;3.17;;;;;;;4.70;100.00;102142.16;2107769;28;20020;-68
2021/10/13 00:26:20;;;;;;;6.10;2.77;;;;;;;4.70;100.00;102138.69;2107772;28;20099;-70
2021/10/13 00:27:20;;;;;;;14.43;3.27;;;;;;;4.70;100.00;102147.34;2107768;28;20051;-70
2021/10/13 00:28:20;;;;;;;10.37;3.00;;;;;;;4.68;100.00;102143.88;2107118;28;20028;-69
2021/10/13 00:29:21;;;;;;;5.23;2.73;;;;;;;4.67;100.00;102146.44;2107191;28;20032;-68
2021/10/13 00:30:21;;;;;;;5.97;2.50;;;;;;;4.71;100.00;102153.34;2107145;28;20103;-68
2021/10/13 00:31:22;;;;;;;8.03;3.47;;;;;;;4.73;100.00;102156.81;2107544;28;20068;-68
2021/10/13 00:32:22;;;;;;;9.67;3.67;;;;;;;4.77;100.00;102153.38;2107755;28;20099;-69
2021/10/13 00:33:22;;;;;;;7.63;3.57;;;;;;;4.76;100.00;102152.50;2107016;28;20016;-69
2021/10/13 00:34:22;;;;;;;8.03;3.57;;;;;;;4.77;100.00;102153.38;2107033;28;20048;-68
2021/10/13 00:35:23;;;;;;;10.20;4.00;;;;;;;4.81;100.00;102157.72;2107751;28;20534;-69
2021/10/13 00:36:23;;;;;;;6.30;2.93;;;;;;;4.83;100.00;102152.53;2107718;28;20020;-70
2021/10/13 00:37:23;;;;;;;11.63;2.90;;;;;;;4.83;100.00;102153.38;2107741;28;20020;-70
2021/10/13 00:38:24;;;;;;;6.50;2.63;;;;;;;4.85;100.00;102159.44;2107699;28;20036;-68
2021/10/13 00:39:24;;;;;;;7.87;3.17;;;;;;;4.88;100.00;102154.28;2107701;28;20054;-68
2021/10/13 00:40:24;;;;;;;6.00;3.13;;;;;;;4.87;100.00;102155.16;2107621;28;20028;-69
2021/10/13 00:41:24;;;;;;;7.57;3.50;;;;;;;4.86;100.00;102158.56;2107673;28;20481;-68
2021/10/13 00:42:25;;;;;;;9.77;3.40;;;;;;;4.86;100.00;102152.56;2107665;28;20099;-68
2021/10/13 00:43:25;;;;;;;6.27;3.43;;;;;;;4.86;100.00;102161.16;2107653;28;20028;-69
2021/10/13 00:44:25;;;;;;;9.97;3.33;;;;;;;4.87;100.00;102149.97;2107533;28;20047;-69
2021/10/13 00:45:26;;;;;;;7.73;2.73;;;;;;;4.84;100.00;102155.13;2107546;28;20047;-68
2021/10/13 00:46:26;;;;;;;5.03;2.67;;;;;;;4.80;100.00;102156.00;2107606;28;20027;-69
2021/10/13 00:47:26;;;;;;;9.93;3.50;;;;;;;4.79;100.00;102158.56;2107649;28;20032;-69
2021/10/13 00:48:27;;;;;;;9.17;4.17;;;;;;;4.76;100.00;102156.84;2107630;28;20024;-68
2021/10/13 00:49:27;;;;;;;12.17;2.97;;;;;;;4.71;100.00;102154.22;2107687;28;20453;-68
2021/10/13 00:50:28;;;;;;;7.20;3.47;;;;;;;4.70;100.00;102151.63;2107590;28;20081;-69
2021/10/13 00:51:29;;;;;;;9.65;3.30;;;;;;;4.72;100.00;102152.53;2107564;28;20035;-69
2021/10/13 00:52:29;;;;;;;7.05;3.25;;;;;;;4.73;100.00;102151.66;2107588;28;20073;-68
2021/10/13 00:53:30;;;;;;;6.53;2.93;;;;;;;4.75;100.00;102150.78;2107571;28;20480;-69
2021/10/13 00:54:31;;;;;;;10.82;3.38;;;;;;;4.74;100.00;102148.19;2107563;28;20103;-68
2021/10/13 00:55:31;;;;;;;5.40;3.03;;;;;;;4.72;100.00;102152.53;2107478;28;20031;-68
2021/10/13 00:56:32;;;;;;;7.40;3.40;;;;;;;4.74;100.00;102146.47;2107603;28;20465;-69
2021/10/13 00:57:32;;;;;;;5.83;3.03;;;;;;;4.71;100.00;102145.59;2107443;28;20393;-69
2021/10/13 00:58:32;;;;;;;8.60;3.30;;;;;;;4.65;100.00;102141.25;2107325;28;20278;-69
2021/10/13 00:59:33;;;;;;;6.40;2.67;;;;;;;4.66;100.00;102147.31;2106792;28;20464;-69
2021/10/13 01:00:33;;;;;;;4.70;2.93;;;;;;;4.64;100.00;102137.84;2106513;28;20025;-70
2021/10/13 01:01:45;;;;;;;6.20;3.30;;;;;;;4.61;100.00;102135.22;2106535;28;20035;-69
2021/10/13 01:02:58;;;;;;;8.70;3.17;;;;;;;4.58;100.00;102142.97;2107370;28;20063;-69
2021/10/13 01:04:17;;;;;;;9.30;3.10;;;;;;;4.58;100.00;102142.13;2107338;28;20036;-68
2021/10/13 01:05:44;;;;;;;11.27;3.92;;;;;;;4.56;100.00;102144.69;2107436;28;20023;-70
2021/10/13 01:07:03;;;;;;;7.43;3.30;;;;;;;4.52;100.00;102142.97;2107012;28;20035;-70
2021/10/13 01:08:12;;;;;;;8.65;3.30;;;;;;;4.58;100.00;102140.38;2107435;28;20089;-68
2021/10/13 01:09:23;;;;;;;7.93;2.97;;;;;;;4.58;100.00;102142.97;2107476;28;20027;-69
2021/10/13 01:10:23;;;;;;;9.38;3.42;;;;;;;4.56;100.00;102155.03;2107475;28;20016;-69
2021/10/13 01:12:05;;;;;;;8.67;3.70;;;;;;;4.58;100.00;102153.31;2107387;28;20107;-68
2021/10/13 01:13:14;;;;;;;11.48;3.55;;;;;;;4.55;100.00;102158.47;2073396;28;20037;-68
2021/10/13 01:14:42;;;;;;;6.13;2.80;;;;;;;4.50;100.00;102152.41;2106919;28;20055;-68
2021/10/13 01:16:10;;;;;;;6.90;3.17;;;;;;;4.51;100.00;102160.19;2107336;28;20031;-68
2021/10/13 01:17:41;;;;;;;5.10;3.67;;;;;;;4.47;100.00;102160.16;2107380;28;20119;-68
2021/10/13 01:18:54;;;;;;;5.68;2.70;;;;;;;4.48;100.00;102159.31;2107331;28;20012;-69
2021/10/13 01:20:29;;;;;;;9.52;3.65;;;;;;;4.46;100.00;102158.44;2107240;28;20028;-69
2021/10/13 01:21:41;;;;;;;5.63;3.33;;;;;;;4.44;100.00;102166.19;2106883;28;20031;-69
2021/10/13 01:22:56;;;;;;;8.38;3.50;;;;;;;4.41;100.00;102160.16;2107018;28;20111;-68
2021/10/13 01:24:22;;;;;;;6.68;3.58;;;;;;;4.42;100.00;102164.47;2105903;28;20118;-69
2021/10/13 01:25:41;;;;;;;8.20;3.38;;;;;;;4.43;100.00;102172.22;2106426;28;20020;-69
2021/10/13 01:27:18;;;;;;;12.20;4.07;;;;;;;4.42;100.00;102167.03;2107159;28;20027;-69
2021/10/13 01:28:41;;;;;;;8.32;3.55;;;;;;;4.40;100.00;102163.56;2107347;28;20032;-69
2021/10/13 01:29:43;;;;;;;4.90;3.10;;;;;;;4.38;100.00;102167.00;2106381;28;20124;-68
2021/10/13 01:30:45;;;;;;;7.07;3.53;;;;;;;4.36;100.00;102155.81;2106874;28;20016;-69
2021/10/13 01:31:50;;;;;;;7.35;3.03;;;;;;;4.35;100.00;102161.81;2107367;28;20050;-68
2021/10/13 01:33:02;;;;;;;7.45;3.75;;;;;;;4.33;100.00;102160.97;2107549;28;20119;-69
2021/10/13 01:34:09;;;;;;;9.90;4.45;;;;;;;4.32;100.00;102164.41;2107463;28;20052;-68
2021/10/13 01:35:13;;;;;;;6.40;3.53;;;;;;;4.33;100.00;102166.13;2107466;28;20024;-68
2021/10/13 01:36:19;;;;;;;6.28;3.15;;;;;;;4.32;100.00;102167.00;2107323;28;20026;-68
2021/10/13 01:37:22;;;;;;;5.85;2.95;;;;;;;4.31;100.00;102162.66;2107258;28;20067;-69
2021/10/13 01:38:25;;;;;;;6.53;3.95;;;;;;;4.30;100.00;102163.53;2107407;28;20031;-69
2021/10/13 01:39:26;;;;;;;12.50;4.15;;;;;;;4.30;100.00;102168.69;2107195;28;20019;-68
2021/10/13 01:40:30;;;;;;;10.00;3.60;;;;;;;4.30;100.00;102166.13;2107143;28;20030;-69
2021/10/13 01:41:35;;;;;;;11.07;3.85;;;;;;;4.29;100.00;102166.97;2107150;28;20484;-69
2021/10/13 01:42:36;;;;;;;8.80;3.95;;;;;;;4.27;100.00;102163.50;2106350;28;20558;-68
2021/10/13 01:43:39;;;;;;;;;;;;;;;4.24;100.00;102163.50;2107059;28;20024;-68
2021/10/13 01:44:41;;;;;;;6.15;3.08;;;;;;;4.23;100.00;102169.53;2107115;28;20002;-68
2021/10/13 01:45:45;;;;;;;6.55;3.13;;;;;;;4.21;100.00;102163.50;2107061;28;20023;-69
2021/10/13 01:46:46;;;;;;;10.07;3.90;;;;;;;4.20;100.00;102166.91;2107061;28;20481;-69
2021/10/13 01:47:47;;;;;;;11.02;3.75;;;;;;;4.18;100.00;102164.31;2106621;28;20044;-69
2021/10/13 01:48:51;;;;;;;6.25;3.10;;;;;;;4.19;100.00;102170.38;2106559;28;20020;-69
2021/10/13 01:49:55;;;;;;;7.65;3.95;;;;;;;4.17;100.00;102166.91;2107070;28;20024;-68
2021/10/13 01:50:55;;;;;;;7.47;3.63;;;;;;;4.20;100.00;102166.91;2107029;28;20073;-68
2021/10/13 01:51:57;;;;;;;8.65;3.58;;;;;;;4.19;100.00;102170.38;2107110;28;20332;-68
2021/10/13 01:52:58;;;;;;;8.45;3.80;;;;;;;4.20;100.00;102166.91;2106431;28;20083;-69
2021/10/13 01:54:00;;;;;;;8.63;3.45;;;;;;;4.16;100.00;102168.63;2106547;28;20040;-69
2021/10/13 01:55:04;;;;;;;5.95;2.88;;;;;;;4.16;100.00;102173.78;2106434;28;20017;-69
2021/10/13 01:56:06;;;;;;;9.27;3.72;;;;;;;4.14;100.00;102177.22;2106517;28;20051;-69
2021/10/13 01:57:07;;;;;;;24.85;5.30;;;;;;;4.10;100.00;102171.16;2106351;28;20396;-68
2021/10/13 01:58:08;;;;;;;;;;;;;;;4.09;100.00;102170.31;2106857;28;20027;-68
2021/10/13 01:59:14;;;;;;;12.57;4.30;;;;;;;4.05;100.00;102178.91;2107089;28;20333;-69
2021/10/13 02:00:15;;;;;;;9.65;3.20;;;;;;;4.00;100.00;102172.81;2106948;28;20294;-68
2021/10/13 02:01:17;;;;;;;6.25;2.88;;;;;;;4.01;100.00;102173.69;2107024;28;20036;-69
2021/10/13 02:02:19;;;;;;;7.50;4.30;;;;;;;4.01;100.00;102171.13;2106891;28;20024;-68
2021/10/13 02:03:22;;;;;;;;;;;;;;;3.99;100.00;102174.56;2106810;28;20110;-68
2021/10/13 02:04:24;;;;;;;7.07;3.15;;;;;;;3.97;100.00;102175.41;2106439;28;19916;-69
2021/10/13 02:05:25;;;;;;;8.98;3.55;;;;;;;3.95;100.00;102171.94;2106275;28;20047;-68
2021/10/13 02:06:29;;;;;;;8.65;4.10;;;;;;;3.93;100.00;102168.50;2106386;28;20020;-69
2021/10/13 02:07:31;;;;;;;10.23;3.05;;;;;;;3.91;100.00;102159.88;2106923;28;20020;-67
2021/10/13 02:08:36;;;;;;;8.77;3.17;;;;;;;3.89;100.00;102161.56;2106995;28;20034;-68
2021/10/13 02:09:36;;;;;;;7.65;2.92;;;;;;;3.90;100.00;102163.31;2106939;28;20078;-68
2021/10/13 02:10:37;;;;;;;13.80;4.03;;;;;;;3.89;100.00;102166.72;2106881;28;20046;-68
2021/10/13 02:11:39;;;;;;;6.78;2.95;;;;;;;3.88;100.00;102162.41;2106996;28;20020;-68
2021/10/13 02:12:44;;;;;;;10.75;4.22;;;;;;;3.84;100.00;102164.13;2106910;28;20057;-68
2021/10/13 02:13:47;;;;;;;10.68;4.22;;;;;;;3.86;100.00;102165.84;2105872;28;20023;-68
2021/10/13 02:14:49;;;;;;;10.48;3.88;;;;;;;3.86;100.00;102171.03;2105989;28;20046;-68
2021/10/13 02:15:52;;;;;;;8.77;3.95;;;;;;;3.86;100.00;102168.44;2106779;28;20024;-69
2021/10/13 02:16:54;;;;;;;11.88;4.80;;;;;;;3.83;100.00;102176.16;2106545;28;20019;-70
2021/10/13 02:17:58;;;;;;;6.00;3.35;;;;;;;3.79;100.00;102171.84;2106845;28;20016;-67
2021/10/13 02:19:02;;;;;;;7.55;3.95;;;;;;;3.78;100.00;102175.28;2106803;28;20028;-67
2021/10/13 02:20:03;;;;;;;8.32;3.47;;;;;;;3.74;100.00;102173.53;2106764;28;20047;-67
2021/10/13 02:21:05;;;;;;;6.13;3.50;;;;;;;3.72;100.00;102175.22;2106747;28;20449;-68
2021/10/13 02:22:06;;;;;;;6.75;3.70;;;;;;;3.70;100.00;102171.78;2106860;28;20027;-67
2021/10/13 02:23:07;;;;;;;14.10;6.47;;;;;;;3.67;100.00;102176.91;2106722;28;20401;-68
2021/10/13 02:24:09;;;;;;;10.68;3.88;;;;;;;3.62;100.00;102186.34;2106916;28;20028;-68
2021/10/13 02:25:10;;;;;;;7.88;3.10;;;;;;;3.57;100.00;102192.34;2106844;28;20016;-68
2021/10/13 02:26:17;;;;;;;5.97;2.80;;;;;;;3.57;100.00;102202.66;2106848;28;20016;-68
2021/10/13 02:27:29;;;;;;;10.82;4.07;;;;;;;3.58;100.00;102203.50;2106856;28;20055;-69
2021/10/13 02:28:38;;;;;;;10.52;3.60;;;;;;;3.56;100.00;102198.31;2106881;28;20172;-68
2021/10/13 02:29:38;;;;;;;8.73;3.97;;;;;;;3.57;100.00;102194.03;2106824;28;20047;-67
2021/10/13 02:30:39;;;;;;;4.43;2.95;;;;;;;3.55;100.00;102194.03;2106855;28;20024;-68
2021/10/13 02:31:40;;;;;;;6.03;3.47;;;;;;;3.55;100.00;102198.31;2106852;28;20012;-67
2021/10/13 02:32:40;;;;;;;5.37;3.53;;;;;;;3.56;100.00;102190.56;2106894;28;20027;-68
2021/10/13 02:33:40;;;;;;;7.43;3.15;;;;;;;3.58;100.00;102194.06;2106853;28;20020;-68
2021/10/13 02:34:42;;;;;;;11.37;3.87;;;;;;;3.57;100.00;102197.50;2106694;28;20134;-68
2021/10/13 02:35:42;;;;;;;7.22;3.33;;;;;;;3.53;100.00;102200.91;2106175;28;20027;-69
2021/10/13 02:36:43;;;;;;;8.60;4.38;;;;;;;3.48;100.00;102200.84;2106175;28;20047;-67
2021/10/13 02:37:43;;;;;;;7.10;3.97;;;;;;;3.48;100.00;102202.56;2106204;28;20020;-68
2021/10/13 02:38:43;;;;;;;8.53;3.33;;;;;;;3.47;100.00;102193.09;2106822;28;20026;-67
2021/10/13 02:39:44;;;;;;;9.33;3.20;;;;;;;3.45;100.00;102199.94;2106788;28;20028;-68
2021/10/13 02:40:44;;;;;;;7.67;3.50;;;;;;;3.44;100.00;102201.69;2106816;28;20028;-67
2021/10/13 02:41:44;;;;;;;8.87;4.13;;;;;;;3.44;100.00;102200.78;2106778;28;20476;-67
2021/10/13 02:42:45;;;;;;;7.53;3.43;;;;;;;3.45;100.00;102203.41;2106775;28;20031;-68
2021/10/13 02:43:45;;;;;;;9.60;4.53;;;;;;;3.44;100.00;102201.69;2106896;28;20040;-68
2021/10/13 02:44:46;;;;;;;6.13;3.67;;;;;;;3.46;100.00;102193.94;2106178;28;20081;-68
2021/10/13 02:45:56;;;;;;;7.80;3.70;;;;;;;3.47;100.00;102185.34;2106195;28;20071;-68
2021/10/13 02:47:08;;;;;;;6.68;2.78;;;;;;;3.44;100.00;102191.34;2106724;28;20060;-67
2021/10/13 02:48:17;;;;;;;7.47;3.50;;;;;;;3.41;100.00;102186.16;2106038;28;20086;-69
2021/10/13 02:49:33;;;;;;;10.30;3.78;;;;;;;3.38;100.00;102190.44;2106276;28;20024;-68
2021/10/13 02:50:51;;;;;;;5.72;3.28;;;;;;;3.37;100.00;102179.22;2106765;28;20020;-66
2021/10/13 02:52:09;;;;;;;5.72;3.65;;;;;;;3.38;100.00;102175.78;2106766;28;20385;-67
2021/10/13 02:53:21;;;;;;;8.35;3.78;;;;;;;3.37;100.00;102174.06;2106597;28;20473;-67
2021/10/13 02:54:27;;;;;;;6.63;3.30;;;;;;;3.37;100.00;102178.34;2106027;28;20031;-67
2021/10/13 02:55:42;;;;;;;8.18;3.55;;;;;;;3.39;100.00;102176.66;2106152;28;20115;-67
2021/10/13 02:56:46;;;;;;;8.07;3.83;;;;;;;3.40;100.00;102183.56;2106103;28;20031;-68
2021/10/13 02:57:54;;;;;;;5.68;2.88;;;;;;;3.41;100.00;102182.69;2106116;28;20481;-67
2021/10/13 02:59:01;;;;;;;7.50;3.97;;;;;;;3.44;100.00;102185.31;2106639;28;20028;-68
2021/10/13 03:00:05;;;;;;;8.77;3.40;;;;;;;3.45;100.00;102176.72;2106718;28;20152;-68
2021/10/13 03:01:08;;;;;;;7.43;3.25;;;;;;;3.44;100.00;102185.31;2106695;28;20043;-68
2021/10/13 03:02:17;;;;;;;7.07;2.92;;;;;;;3.42;100.00;102184.44;2106695;28;20060;-68
2021/10/13 03:03:23;;;;;;;7.35;4.20;;;;;;;3.45;100.00;102187.03;2106610;28;20031;-68
2021/10/13 03:04:32;;;;;;;10.50;3.80;;;;;;;3.45;100.00;102180.16;2106690;28;20108;-68
2021/10/13 03:05:36;;;;;;;7.70;3.13;;;;;;;3.42;100.00;102184.44;2106061;28;20082;-67
2021/10/13 03:06:39;;;;;;;10.65;3.70;;;;;;;3.40;100.00;102186.13;2106126;28;20026;-68
2021/10/13 03:07:43;;;;;;;7.95;3.10;;;;;;;3.37;100.00;102189.56;2106654;28;20031;-68
2021/10/13 03:08:49;;;;;;;6.43;3.30;;;;;;;3.35;100.00;102181.78;2106011;28;20017;-67
2021/10/13 03:09:54;;;;;;;11.70;3.88;;;;;;;3.37;100.00;102193.84;2098318;28;20462;-67
2021/10/13 03:10:57;;;;;;;8.85;3.92;;;;;;;3.39;100.00;102194.75;2106082;28;20102;-68
2021/10/13 03:12:01;;;;;;;10.07;4.20;;;;;;;3.39;100.00;102199.91;2106667;28;20081;-68
2021/10/13 03:13:05;;;;;;;8.65;3.90;;;;;;;3.42;100.00;102199.94;2106612;28;20073;-68
2021/10/13 03:14:07;;;;;;;7.22;3.28;;;;;;;3.42;100.00;102198.19;2106668;28;20016;-67
2021/10/13 03:15:10;;;;;;;6.90;3.25;;;;;;;3.48;100.00;102194.81;2106648;28;20031;-68
2021/10/13 03:16:11;;;;;;;7.53;3.80;;;;;;;3.53;100.00;102198.31;2105886;28;20370;-67
2021/10/13 03:17:13;;;;;;;7.90;3.30;;;;;;;3.57;100.00;102197.50;2105933;28;20111;-67
2021/10/13 03:18:15;;;;;;;7.30;3.30;;;;;;;3.58;100.00;102199.22;2106600;28;20055;-68
2021/10/13 03:19:18;;;;;;;9.00;3.22;;;;;;;3.59;100.00;102185.44;2106015;28;20016;-68
2021/10/13 03:20:20;;;;;;;7.72;4.18;;;;;;;3.59;100.00;102190.59;2105967;28;20024;-67
2021/10/13 03:21:24;;;;;;;6.53;3.42;;;;;;;3.58;100.00;102194.06;2106642;28;20028;-68
2021/10/13 03:22:25;;;;;;;9.07;4.32;;;;;;;3.55;100.00;102196.59;2105944;28;20028;-67
2021/10/13 03:23:27;;;;;;;12.90;4.10;;;;;;;3.52;100.00;102195.72;2097538;28;20024;-67
2021/10/13 03:24:27;;;;;;;7.22;3.33;;;;;;;3.51;100.00;102202.59;2106056;28;20024;-68
2021/10/13 03:25:30;;;;;;;8.00;3.37;;;;;;;3.48;100.00;102206.00;2106700;28;20024;-67
2021/10/13 03:26:30;;;;;;;9.45;3.80;;;;;;;3.46;100.00;102205.13;2106554;28;20437;-68
2021/10/13 03:27:32;;;;;;;6.00;3.73;;;;;;;3.42;100.00;102205.94;2106504;28;20065;-67
2021/10/13 03:28:33;;;;;;;;;;;;;;;3.39;100.00;102205.91;2107051;28;20028;-68
2021/10/13 03:29:38;;;;;;;9.80;3.50;;;;;;;3.39;100.00;102205.06;2106630;28;19908;-67
2021/10/13 03:30:42;;;;;;;8.05;3.25;;;;;;;3.37;100.00;102204.16;2105902;28;20510;-67
2021/10/13 03:31:42;;;;;;;7.95;3.28;;;;;;;3.33;100.00;102205.88;2105981;28;20024;-68
2021/10/13 03:32:44;;;;;;;9.88;3.92;;;;;;;3.32;100.00;102206.72;2106596;28;20027;-67
2021/10/13 03:33:52;;;;;;;9.02;3.97;;;;;;;3.29;100.00;102211.84;2105841;28;20108;-67
2021/10/13 03:34:53;;;;;;;5.55;3.33;;;;;;;3.25;100.00;102218.66;2105973;28;20103;-67
2021/10/13 03:35:54;;;;;;;8.93;3.87;;;;;;;3.24;100.00;102216.94;2106649;28;20024;-69
2021/10/13 03:36:54;;;;;;;6.32;3.60;;;;;;;3.24;100.00;102211.78;2105887;28;20043;-67
2021/10/13 03:37:57;;;;;;;7.50;3.70;;;;;;;3.22;100.00;102218.66;2106014;28;20027;-67
2021/10/13 03:38:57;;;;;;;7.60;4.05;;;;;;;3.20;100.00;102218.66;2105932;28;20024;-68
2021/10/13 03:39:57;;;;;;;6.77;3.93;;;;;;;3.21;100.00;102220.38;2105894;28;20027;-66
2021/10/13 03:40:57;;;;;;;6.03;3.20;;;;;;;3.18;100.00;102227.22;2106539;28;20059;-67
2021/10/13 03:42:01;;;;;;;7.47;3.57;;;;;;;3.17;100.00;102220.31;2106497;28;20051;-67
2021/10/13 03:43:02;;;;;;;6.53;2.70;;;;;;;3.16;100.00;102226.31;2106582;28;20301;-68
2021/10/13 03:44:03;;;;;;;7.32;3.45;;;;;;;3.21;100.00;102219.50;2106542;28;20024;-67
2021/10/13 03:45:04;;;;;;;;;;;;;;;3.29;100.00;102223.00;2106947;28;20067;-67
2021/10/13 03:46:04;;;;;;;19.92;4.65;;;;;;;3.33;100.00;102218.75;2106341;28;19912;-67
2021/10/13 03:47:06;;;;;;;6.30;3.20;;;;;;;3.37;100.00;102217.06;2106352;28;20059;-68
2021/10/13 03:48:06;;;;;;;8.95;3.88;;;;;;;3.39;100.00;102223.13;2106551;28;20032;-68
2021/10/13 03:49:07;;;;;;;8.57;3.97;;;;;;;3.37;100.00;102224.81;2105865;28;20574;-68
2021/10/13 03:50:09;;;;;;;5.60;3.47;;;;;;;3.40;100.00;102222.28;2105755;28;20024;-67
2021/10/13 03:51:09;;;;;;;8.07;3.40;;;;;;;3.45;100.00;102228.31;2106462;28;20091;-67
2021/10/13 03:52:09;;;;;;;9.17;3.53;;;;;;;3.47;100.00;102226.66;2106542;28;20473;-68
2021/10/13 03:53:10;;;;;;;12.07;4.13;;;;;;;3.49;100.00;102222.34;2105725;28;20386;-68
2021/10/13 03:54:10;;;;;;;11.57;3.93;;;;;;;3.51;100.00;102227.53;2105630;28;20024;-67
2021/10/13 03:55:13;;;;;;;7.53;3.27;;;;;;;3.52;100.00;102229.28;2106490;28;20032;-67
2021/10/13 03:56:15;;;;;;;6.03;3.25;;;;;;;3.50;100.00;102226.69;2106441;28;20376;-68
2021/10/13 03:57:15;;;;;;;;;;;;;;;3.52;100.00;102224.13;2106970;28;20047;-67
2021/10/13 03:58:15;;;;;;;7.22;2.88;;;;;;;3.55;100.00;102226.69;2106422;28;19914;-67
2021/10/13 03:59:15;;;;;;;7.80;3.63;;;;;;;3.53;100.00;102233.59;2106371;28;20048;-68
2021/10/13 04:00:21;;;;;;;9.10;3.90;;;;;;;3.54;100.00;102238.75;2106395;28;20055;-67
2021/10/13 04:01:21;;;;;;;7.53;3.50;;;;;;;3.56;100.00;102236.19;2105613;28;20027;-68
2021/10/13 04:02:21;;;;;;;9.93;3.43;;;;;;;3.55;100.00;102240.50;2105779;28;20507;-66
2021/10/13 04:03:22;;;;;;;15.37;4.27;;;;;;;3.54;100.00;102236.19;2105695;28;20069;-67
2021/10/13 04:04:22;;;;;;;8.63;4.40;;;;;;;3.58;100.00;102239.66;2105547;28;20048;-67
2021/10/13 04:05:22;;;;;;;7.93;3.27;;;;;;;3.55;100.00;102237.03;2106391;28;20464;-66
2021/10/13 04:06:23;;;;;;;5.30;3.10;;;;;;;3.52;100.00;102235.28;2107732;28;20031;-67
2021/10/13 04:07:23;;;;;;;6.47;3.50;;;;;;;3.50;100.00;102234.41;2107857;28;20054;-67
2021/10/13 04:08:23;;;;;;;5.00;3.20;;;;;;;3.45;100.00;102234.38;2107969;28;20028;-66
2021/10/13 04:09:24;;;;;;;10.70;3.63;;;;;;;3.45;100.00;102233.50;2107916;28;20487;-67
2021/10/13 04:10:24;;;;;;;6.07;3.40;;;;;;;3.43;100.00;102235.22;2107893;28;20047;-67
2021/10/13 04:11:25;;;;;;;6.37;3.27;;;;;;;3.42;100.00;102234.34;2107842;28;20039;-67
2021/10/13 04:12:26;;;;;;;6.93;3.17;;;;;;;3.39;100.00;102233.44;2107739;28;20024;-68
2021/10/13 04:13:26;;;;;;;4.68;3.00;;;;;;;3.40;100.00;102235.16;2107794;28;20365;-68
2021/10/13 04:14:26;;;;;;;6.50;3.47;;;;;;;3.40;100.00;102235.16;2107974;28;20024;-67
2021/10/13 04:15:27;;;;;;;10.10;4.47;;;;;;;3.43;100.00;102230.94;2107851;28;20278;-68
2021/10/13 04:16:27;;;;;;;6.30;2.70;;;;;;;3.46;100.00;102235.25;2107702;28;20087;-68
2021/10/13 04:17:27;;;;;;;9.57;3.17;;;;;;;3.47;100.00;102232.69;2107805;28;20032;-68
2021/10/13 04:18:27;;;;;;;8.33;3.67;;;;;;;3.52;100.00;102240.44;2107081;28;20027;-67
2021/10/13 04:19:28;;;;;;;7.23;3.17;;;;;;;3.54;100.00;102236.19;2107239;28;20031;-68
2021/10/13 04:20:28;;;;;;;7.33;3.77;;;;;;;3.57;100.00;102235.34;2107813;28;20056;-67
2021/10/13 04:21:28;;;;;;;10.53;3.23;;;;;;;3.60;100.00;102237.97;2107192;28;20023;-67
2021/10/13 04:22:29;;;;;;;5.60;3.33;;;;;;;3.60;100.00;102232.78;2107112;28;20540;-67
2021/10/13 04:23:29;;;;;;;8.80;3.80;;;;;;;3.64;100.00;102244.00;2107613;28;20385;-68
2021/10/13 04:24:29;;;;;;;6.17;3.73;;;;;;;3.67;100.00;102238.88;2107586;28;20473;-67
2021/10/13 04:25:29;;;;;;;5.83;3.93;;;;;;;3.69;100.00;102238.03;2106848;28;20059;-67
2021/10/13 04:26:30;;;;;;;10.60;3.50;;;;;;;3.72;100.00;102239.78;2107145;28;20028;-68
2021/10/13 04:27:30;;;;;;;5.67;3.30;;;;;;;3.72;100.00;102237.19;2107685;28;20076;-67
2021/10/13 04:28:30;;;;;;;6.70;3.30;;;;;;;3.76;100.00;102233.78;2107642;28;20020;-68
2021/10/13 04:29:30;;;;;;;7.40;3.40;;;;;;;3.82;100.00;102239.00;2107752;28;20103;-67
2021/10/13 04:30:31;;;;;;;11.50;3.20;;;;;;;3.85;100.00;102244.19;2107753;28;20524;-67
2021/10/13 04:31:31;;;;;;;11.00;4.23;;;;;;;3.83;100.00;102240.72;2107811;28;20073;-66
2021/10/13 04:32:32;;;;;;;4.60;2.83;;;;;;;3.88;100.00;102250.22;2107663;28;20651;-67
2021/10/13 04:33:32;;;;;;;6.25;3.38;;;;;;;3.89;100.00;102244.19;2107688;28;20036;-67
2021/10/13 04:34:32;;;;;;;5.87;2.83;;;;;;;3.92;100.00;102244.22;2107527;28;20032;-67
2021/10/13 04:35:33;;;;;;;8.83;3.43;;;;;;;3.96;100.00;102238.25;2106880;28;20020;-67
2021/10/13 04:36:33;;;;;;;6.63;3.57;;;;;;;4.01;100.00;102238.28;2107369;28;20073;-67
2021/10/13 04:37:33;;;;;;;9.13;3.87;;;;;;;4.02;100.00;102237.41;2107463;28;20024;-67
2021/10/13 04:38:34;;;;;;;7.67;3.90;;;;;;;4.06;100.00;102241.75;2107225;28;20036;-67
2021/10/13 04:39:34;;;;;;;7.00;3.30;;;;;;;4.06;100.00;102242.63;2107267;28;20500;-66
2021/10/13 04:40:35;;;;;;;5.90;3.23;;;;;;;4.09;100.00;102237.50;2107379;28;20028;-66
2021/10/13 04:41:35;;;;;;;8.45;3.25;;;;;;;4.14;100.00;102241.81;2107506;28;20024;-67
2021/10/13 04:42:35;;;;;;;5.37;3.20;;;;;;;4.17;100.00;102240.13;2107424;28;20069;-66
2021/10/13 04:43:36;;;;;;;7.40;3.70;;;;;;;4.21;100.00;102238.44;2107429;28;20380;-67
2021/10/13 04:44:36;;;;;;;7.27;3.73;;;;;;;4.21;100.00;102238.44;2107524;28;20146;-67
2021/10/13 04:45:36;;;;;;;7.07;3.03;;;;;;;4.25;100.00;102235.03;2107389;28;20022;-67
2021/10/13 04:46:37;;;;;;;6.97;3.30;;;;;;;4.28;100.00;102237.63;2107496;28;20502;-68
2021/10/13 04:47:37;;;;;;;6.60;3.53;;;;;;;4.34;100.00;102231.59;2107486;28;20473;-68
2021/10/13 04:48:37;;;;;;;8.10;3.50;;;;;;;4.37;100.00;102236.78;2107518;28;20024;-67
2021/10/13 04:49:37;;;;;;;6.83;3.90;;;;;;;4.40;100.00;102235.94;2107533;28;20020;-67
2021/10/13 04:50:37;;;;;;;6.53;3.50;;;;;;;4.43;100.00;102241.16;2107604;28;20071;-66
2021/10/13 04:51:38;;;;;;;5.07;3.10;;;;;;;4.46;100.00;102241.16;2107585;28;20157;-67
2021/10/13 04:52:38;;;;;;;6.20;2.87;;;;;;;4.48;100.00;102239.47;2107708;28;20020;-67
2021/10/13 04:53:38;;;;;;;6.13;3.77;;;;;;;4.55;100.00;102240.38;2106616;28;20100;-66